Time;durP1;ratioP1;P1;durP2;ratioP2;P2;SDS_P1;SDS_P2;PMS_P1;PMS_P2;Temp;Humidity;BMP_temperature;BMP_pressure;BME280_temperature;BME280_humidity;BME280_pressure;Samples;Min_cycle;Max_cycle;Signal;HPM_P1;HPM_P2
2021/03/30 00:00:32;;;;;;;2.72;1.58;;;16.30;74.70;;;;;;5065905;28;20078;-59
2021/03/30 00:02:59;;;;;;;5.15;1.85;;;16.00;74.80;;;;;;5066281;28;20495;-60
2021/03/30 00:05:25;;;;;;;3.83;1.52;;;16.20;74.30;;;;;;5065338;28;20021;-60
2021/03/30 00:07:51;;;;;;;2.28;1.70;;;16.30;75.00;;;;;;5066920;28;20119;-60
2021/03/30 00:10:18;;;;;;;1.90;1.30;;;16.10;74.00;;;;;;5066138;28;20107;-60
2021/03/30 00:12:44;;;;;;;2.30;1.45;;;16.30;74.00;;;;;;5065987;28;20098;-59
2021/03/30 00:15:12;;;;;;;4.38;1.58;;;16.20;74.20;;;;;;5065908;28;20441;-60
2021/03/30 00:17:39;;;;;;;3.03;1.70;;;16.20;74.60;;;;;;5065802;28;20028;-59
2021/03/30 00:20:10;;;;;;;3.38;1.40;;;16.20;73.90;;;;;;5065693;28;20044;-60
2021/03/30 00:22:37;;;;;;;3.60;1.42;;;16.30;74.50;;;;;;5065528;28;20029;-60
2021/03/30 00:25:08;;;;;;;2.60;1.40;;;16.20;75.30;;;;;;5065908;28;20478;-60
2021/03/30 00:27:35;;;;;;;2.60;1.42;;;16.10;74.70;;;;;;5065498;28;20422;-59
2021/03/30 00:30:04;;;;;;;2.20;1.40;;;16.00;75.80;;;;;;5065594;28;20055;-60
2021/03/30 00:32:31;;;;;;;1.60;1.25;;;16.00;75.90;;;;;;5064957;28;20522;-60
2021/03/30 00:34:57;;;;;;;3.58;1.50;;;16.10;76.30;;;;;;5065493;28;20020;-60
2021/03/30 00:37:22;;;;;;;2.65;1.42;;;16.10;76.80;;;;;;5065876;28;20020;-60
2021/03/30 00:39:49;;;;;;;3.17;1.75;;;16.00;75.70;;;;;;5066386;28;20032;-60
2021/03/30 00:42:18;;;;;;;1.55;1.08;;;16.10;76.20;;;;;;5065481;28;20029;-60
2021/03/30 00:44:45;;;;;;;2.53;1.35;;;16.10;77.10;;;;;;5065375;28;20055;-60
2021/03/30 00:47:15;;;;;;;3.00;1.90;;;16.00;77.00;;;;;;5065350;28;20055;-59
2021/03/30 00:49:42;;;;;;;4.32;1.88;;;15.80;77.10;;;;;;5064891;28;20032;-60
2021/03/30 00:52:10;;;;;;;2.60;1.83;;;15.80;78.40;;;;;;5065449;28;20108;-60
2021/03/30 00:54:37;;;;;;;1.90;1.55;;;15.60;77.90;;;;;;5064885;28;20342;-60
2021/03/30 00:57:07;;;;;;;2.83;1.75;;;15.60;78.20;;;;;;5065258;28;20506;-59
2021/03/30 00:59:35;;;;;;;2.60;1.60;;;15.50;78.40;;;;;;5063969;28;20414;-59
2021/03/30 01:02:01;;;;;;;1.95;1.20;;;15.40;78.20;;;;;;5065086;28;20028;-60
2021/03/30 01:04:27;;;;;;;2.50;1.38;;;15.60;77.70;;;;;;5064886;28;20059;-60
2021/03/30 01:06:55;;;;;;;2.33;1.63;;;15.80;77.90;;;;;;5065140;28;20060;-59
2021/03/30 01:09:51;;;;;;;2.67;2.05;;;15.60;79.50;;;;;;5065201;28;20123;-60
2021/03/30 01:12:43;;;;;;;3.92;1.80;;;15.50;79.40;;;;;;5064842;28;20024;-60
2021/03/30 01:15:19;;;;;;;3.47;1.98;;;15.50;79.10;;;;;;5064892;28;20029;-59
2021/03/30 01:18:06;;;;;;;2.30;1.70;;;15.50;79.10;;;;;;5064758;28;20016;-60
2021/03/30 01:21:02;;;;;;;4.80;1.58;;;15.70;78.30;;;;;;5065045;28;20581;-60
2021/03/30 01:24:11;;;;;;;3.25;1.80;;;15.60;79.00;;;;;;5064235;28;20032;-60
2021/03/30 01:26:58;;;;;;;2.17;1.50;;;15.40;79.60;;;;;;5061635;28;20510;-59
2021/03/30 01:29:46;;;;;;;3.90;2.05;;;15.40;78.50;;;;;;5064137;28;20044;-60
2021/03/30 01:32:42;;;;;;;2.50;1.88;;;15.50;79.20;;;;;;5064674;28;20020;-59
2021/03/30 01:35:11;;;;;;;2.20;1.77;;;15.40;79.30;;;;;;5064673;28;20052;-59
2021/03/30 01:37:44;;;;;;;2.40;1.55;;;15.30;79.40;;;;;;5064486;28;20016;-59
2021/03/30 01:40:12;;;;;;;4.85;1.70;;;15.00;79.40;;;;;;5064526;28;20033;-59
2021/03/30 01:42:39;;;;;;;3.10;1.65;;;15.10;78.40;;;;;;5064092;28;20025;-60
2021/03/30 01:45:06;;;;;;;1.92;1.50;;;15.20;78.70;;;;;;5064375;28;20024;-60
2021/03/30 01:47:36;;;;;;;4.25;1.98;;;15.30;79.20;;;;;;5064411;28;20028;-60
2021/03/30 01:50:04;;;;;;;3.45;1.73;;;15.30;79.60;;;;;;5064298;28;20028;-59
2021/03/30 01:52:32;;;;;;;4.20;1.77;;;15.20;80.70;;;;;;5064151;28;20025;-60
2021/03/30 01:54:58;;;;;;;2.20;1.67;;;15.00;79.40;;;;;;5064320;28;20029;-60
2021/03/30 01:57:28;;;;;;;2.85;1.52;;;15.10;80.10;;;;;;5064425;28;20024;-60
2021/03/30 01:59:57;;;;;;;2.55;1.70;;;15.00;79.70;;;;;;5064024;28;20406;-60
2021/03/30 02:02:24;;;;;;;3.47;1.52;;;15.20;80.40;;;;;;5064031;28;20418;-60
2021/03/30 02:04:51;;;;;;;2.35;1.52;;;15.20;80.20;;;;;;5064326;28;20041;-60
2021/03/30 02:07:18;;;;;;;3.65;1.60;;;15.20;80.80;;;;;;5064219;28;20028;-60
2021/03/30 02:09:48;;;;;;;2.63;1.73;;;15.10;81.30;;;;;;5063894;28;20442;-59
2021/03/30 02:12:16;;;;;;;3.03;1.67;;;15.00;81.40;;;;;;5067780;28;20491;-59
2021/03/30 02:14:43;;;;;;;3.47;2.08;;;15.00;81.20;;;;;;5067855;28;20503;-59
2021/03/30 02:17:37;;;;;;;2.63;1.77;;;15.00;81.60;;;;;;5068261;28;20017;-59
2021/03/30 02:20:22;;;;;;;3.72;1.98;;;15.00;82.70;;;;;;5068525;28;20024;-60
2021/03/30 02:22:50;;;;;;;;;;;14.90;82.40;;;;;;5069283;28;20111;-59
2021/03/30 02:25:19;;;;;;;4.80;3.17;;;14.70;83.00;;;;;;5068161;28;20434;-59
2021/03/30 02:27:48;;;;;;;5.65;2.50;;;14.60;83.30;;;;;;5066897;28;20032;-59
2021/03/30 02:30:16;;;;;;;4.85;2.70;;;14.50;83.90;;;;;;5068080;28;20025;-59
2021/03/30 02:32:43;;;;;;;3.97;2.20;;;14.40;84.30;;;;;;5056013;28;20025;-59
2021/03/30 02:35:11;;;;;;;3.50;1.98;;;14.30;84.70;;;;;;5047790;28;20021;-59
2021/03/30 02:37:39;;;;;;;3.80;2.15;;;14.30;84.80;;;;;;5047643;28;20036;-59
2021/03/30 02:40:09;;;;;;;3.50;2.25;;;14.30;85.30;;;;;;5047905;28;20029;-59
2021/03/30 02:42:39;;;;;;;3.28;1.88;;;14.10;84.80;;;;;;5047338;28;20041;-59
2021/03/30 02:45:05;;;;;;;3.80;1.83;;;14.10;84.80;;;;;;5047728;28;20025;-59
2021/03/30 02:47:33;;;;;;;5.00;1.90;;;14.10;84.90;;;;;;5047198;28;20029;-59
2021/03/30 02:50:01;;;;;;;2.97;1.73;;;14.00;85.20;;;;;;5047262;28;20094;-59
2021/03/30 02:52:29;;;;;;;4.20;2.10;;;14.00;85.20;;;;;;5047138;28;20033;-59
2021/03/30 02:54:56;;;;;;;3.72;1.80;;;14.00;84.70;;;;;;5047666;28;20017;-60
2021/03/30 02:57:23;;;;;;;4.32;2.10;;;14.00;85.50;;;;;;5047905;28;20028;-59
2021/03/30 02:59:49;;;;;;;3.35;1.90;;;14.00;85.50;;;;;;5048214;28;20082;-59
2021/03/30 03:02:15;;;;;;;3.50;2.10;;;14.00;85.70;;;;;;5047111;28;20032;-59
2021/03/30 03:04:44;;;;;;;6.22;2.00;;;13.90;86.10;;;;;;5046947;28;20060;-59
2021/03/30 03:07:11;;;;;;;2.70;1.80;;;13.90;86.00;;;;;;5047649;28;20051;-59
2021/03/30 03:09:38;;;;;;;4.78;1.98;;;13.90;86.20;;;;;;5046652;28;20029;-59
2021/03/30 03:12:05;;;;;;;3.40;1.90;;;13.90;85.90;;;;;;5047207;28;20071;-59
2021/03/30 03:14:34;;;;;;;3.15;1.85;;;14.00;86.10;;;;;;5046919;28;20017;-59
2021/03/30 03:17:01;;;;;;;4.75;1.60;;;14.00;85.90;;;;;;5047335;28;20488;-59
2021/03/30 03:19:27;;;;;;;4.15;2.08;;;13.90;86.20;;;;;;5046775;28;20025;-59
2021/03/30 03:21:54;;;;;;;3.20;1.63;;;14.00;85.50;;;;;;5047145;28;20113;-59
2021/03/30 03:24:20;;;;;;;3.22;1.48;;;14.10;85.20;;;;;;5046661;28;20054;-59
2021/03/30 03:26:47;;;;;;;3.22;1.83;;;14.10;85.50;;;;;;5047063;28;20341;-59
2021/03/30 03:29:16;;;;;;;2.38;1.60;;;14.00;86.20;;;;;;5047414;28;20559;-59
2021/03/30 03:31:44;;;;;;;5.90;1.98;;;13.90;86.70;;;;;;5046300;28;20452;-59
2021/03/30 03:34:11;;;;;;;3.08;1.70;;;14.00;86.30;;;;;;5047022;28;20056;-59
2021/03/30 03:36:40;;;;;;;2.63;1.83;;;13.90;87.30;;;;;;5046657;28;20025;-59
2021/03/30 03:39:09;;;;;;;2.67;1.83;;;13.60;88.50;;;;;;5046810;28;20017;-59
2021/03/30 03:41:37;;;;;;;3.05;1.90;;;13.50;88.80;;;;;;5046810;28;20029;-59
2021/03/30 03:44:04;;;;;;;2.75;1.85;;;13.40;88.80;;;;;;5046525;28;20017;-59
2021/03/30 03:46:30;;;;;;;3.50;1.70;;;13.60;88.50;;;;;;5045249;28;20564;-59
2021/03/30 03:48:57;;;;;;;4.97;2.15;;;13.60;88.70;;;;;;5046659;28;20100;-59
2021/03/30 03:51:24;;;;;;;5.68;2.15;;;13.50;89.00;;;;;;5046847;28;20078;-59
2021/03/30 03:53:53;;;;;;;5.78;2.28;;;13.40;89.60;;;;;;5046805;28;20067;-59
2021/03/30 03:56:54;;;;;;;3.65;2.30;;;13.50;89.00;;;;;;5047014;28;20115;-59
2021/03/30 03:59:31;;;;;;;4.10;2.15;;;13.30;90.00;;;;;;5045516;28;20045;-59
2021/03/30 04:02:24;;;;;;;3.60;2.35;;;13.30;90.20;;;;;;5046025;28;20399;-59
2021/03/30 04:05:09;;;;;;;4.80;2.30;;;13.20;90.50;;;;;;5045131;28;20068;-59
2021/03/30 04:07:47;;;;;;;2.85;2.13;;;13.10;90.70;;;;;;5045631;28;20266;-59
2021/03/30 04:10:18;;;;;;;3.10;1.90;;;13.00;90.90;;;;;;5046119;28;20135;-59
2021/03/30 04:12:46;;;;;;;2.80;2.17;;;13.00;91.20;;;;;;5046144;28;20054;-59
2021/03/30 04:15:12;;;;;;;3.22;2.05;;;13.00;91.00;;;;;;5045982;28;20017;-59
2021/03/30 04:17:40;;;;;;;5.15;2.45;;;13.00;91.10;;;;;;5045839;28;20032;-59
2021/03/30 04:20:12;;;;;;;5.00;2.40;;;13.00;91.10;;;;;;5046077;28;20494;-59
2021/03/30 04:22:39;;;;;;;6.43;2.42;;;13.00;91.20;;;;;;5045843;28;20333;-59
2021/03/30 04:25:08;;;;;;;3.90;2.17;;;13.00;91.40;;;;;;5045985;28;20037;-59
2021/03/30 04:27:35;;;;;;;3.22;2.00;;;12.90;91.40;;;;;;5045528;28;20079;-59
2021/03/30 04:30:00;;;;;;;3.28;2.08;;;12.90;91.60;;;;;;5045460;28;20029;-59
2021/03/30 04:32:27;;;;;;;3.88;2.38;;;12.90;91.70;;;;;;5045169;28;20023;-59
2021/03/30 04:34:53;;;;;;;3.72;2.08;;;12.90;91.60;;;;;;5045043;28;20036;-59
2021/03/30 04:37:19;;;;;;;3.78;2.40;;;12.90;91.70;;;;;;5046141;28;20029;-59
2021/03/30 04:39:45;;;;;;;3.92;2.03;;;13.00;91.80;;;;;;5045523;28;20036;-59
2021/03/30 04:42:12;;;;;;;5.18;2.70;;;12.90;91.70;;;;;;5045597;28;20095;-59
2021/03/30 04:44:38;;;;;;;3.85;2.33;;;12.80;92.00;;;;;;5045267;28;20384;-59
2021/03/30 04:47:04;;;;;;;3.22;1.92;;;12.80;92.00;;;;;;5045113;28;20035;-59
2021/03/30 04:49:31;;;;;;;3.40;2.35;;;12.80;92.10;;;;;;5045029;28;20036;-59
2021/03/30 04:51:57;;;;;;;4.45;2.40;;;12.70;92.30;;;;;;5045344;28;20045;-59
2021/03/30 04:54:24;;;;;;;5.32;2.30;;;12.80;92.30;;;;;;5044839;28;20064;-60
2021/03/30 04:56:50;;;;;;;4.57;2.47;;;12.80;92.30;;;;;;5045769;28;20024;-59
2021/03/30 04:59:16;;;;;;;3.83;2.47;;;12.90;92.20;;;;;;5045289;28;20040;-59
2021/03/30 05:01:42;;;;;;;4.50;1.95;;;13.00;92.00;;;;;;5044985;28;20025;-59
2021/03/30 05:04:08;;;;;;;3.15;2.35;;;12.90;92.10;;;;;;5044971;28;20083;-59
2021/03/30 05:06:35;;;;;;;5.22;3.08;;;12.80;92.20;;;;;;5044381;28;20025;-59
2021/03/30 05:09:01;;;;;;;5.25;2.72;;;12.80;92.10;;;;;;5053086;28;20576;-59
2021/03/30 05:11:27;;;;;;;3.35;2.10;;;12.80;92.20;;;;;;5054840;28;20066;-59
2021/03/30 05:13:53;;;;;;;5.18;2.05;;;12.70;92.50;;;;;;5059859;28;20032;-59
2021/03/30 05:16:18;;;;;;;2.95;2.10;;;12.70;92.30;;;;;;5055498;28;20017;-59
2021/03/30 05:18:44;;;;;;;4.63;2.30;;;12.70;92.40;;;;;;5066211;28;20407;-59
2021/03/30 05:21:10;;;;;;;4.22;2.65;;;12.60;92.50;;;;;;5062378;28;20025;-59
2021/03/30 05:23:36;;;;;;;5.25;2.60;;;12.50;92.70;;;;;;5065196;28;20491;-58
2021/03/30 05:26:04;;;;;;;3.25;2.25;;;12.50;93.10;;;;;;5065864;28;20493;-59
2021/03/30 05:28:29;;;;;;;3.92;2.28;;;12.60;93.00;;;;;;5065915;28;20445;-59
2021/03/30 05:30:55;;;;;;;2.90;1.90;;;12.50;93.20;;;;;;5065904;28;20602;-59
2021/03/30 05:33:21;;;;;;;4.50;2.05;;;12.60;92.90;;;;;;5064885;28;20028;-59
2021/03/30 05:35:47;;;;;;;7.32;2.25;;;12.60;92.60;;;;;;5064506;28;20031;-59
2021/03/30 05:38:14;;;;;;;3.85;2.13;;;12.70;92.60;;;;;;5064529;28;20111;-59
2021/03/30 05:40:41;;;;;;;2.63;2.20;;;12.70;92.60;;;;;;5063427;28;20511;-59
2021/03/30 05:43:09;;;;;;;3.10;2.10;;;12.80;92.70;;;;;;5064403;28;20100;-59
2021/03/30 05:45:35;;;;;;;3.70;2.33;;;12.70;92.60;;;;;;5063805;28;20029;-59
2021/03/30 05:48:01;;;;;;;3.03;2.28;;;12.70;92.90;;;;;;5063155;28;20035;-59
2021/03/30 05:50:34;;;;;;;3.90;2.35;;;12.90;92.80;;;;;;5057575;28;20507;-59
2021/03/30 05:53:09;;;;;;;4.25;2.60;;;12.70;92.80;;;;;;5048432;28;20076;-59
2021/03/30 05:55:43;;;;;;;4.88;2.38;;;12.70;93.30;;;;;;5064931;28;20028;-59
2021/03/30 05:58:10;;;;;;;3.30;2.13;;;12.40;93.80;;;;;;5048515;28;20025;-59
2021/03/30 06:00:42;;;;;;;2.25;2.00;;;12.40;93.90;;;;;;5045017;28;20021;-58
2021/03/30 06:03:34;;;;;;;4.30;2.28;;;12.50;93.70;;;;;;5043349;28;20099;-59
2021/03/30 06:06:01;;;;;;;2.97;2.10;;;12.50;93.80;;;;;;5042163;28;20051;-58
2021/03/30 06:08:29;;;;;;;6.07;2.60;;;12.30;93.70;;;;;;5049764;28;20036;-59
2021/03/30 06:11:02;;;;;;;3.60;2.10;;;12.30;93.90;;;;;;5051405;28;20021;-59
2021/03/30 06:13:49;;;;;;;4.43;2.50;;;12.40;93.90;;;;;;5064608;28;20064;-59
2021/03/30 06:16:32;;;;;;;5.03;2.53;;;12.40;93.90;;;;;;5048974;28;20036;-59
2021/03/30 06:19:07;;;;;;;3.67;2.67;;;12.30;93.90;;;;;;5046868;28;20029;-59
2021/03/30 06:21:35;;;;;;;;;;;12.40;93.70;;;;;;5050272;28;20040;-59
2021/03/30 06:24:01;;;;;;;4.03;2.38;;;12.30;94.10;;;;;;5050827;28;20335;-59
2021/03/30 06:26:28;;;;;;;4.75;2.40;;;12.30;94.10;;;;;;5046661;28;20113;-59
2021/03/30 06:28:54;;;;;;;3.85;2.25;;;12.40;94.30;;;;;;5060956;28;20028;-59
2021/03/30 06:31:20;;;;;;;6.30;2.85;;;12.50;94.20;;;;;;5051328;28;20028;-58
2021/03/30 06:33:56;;;;;;;6.68;2.65;;;12.60;94.10;;;;;;5054890;28;20021;-58
2021/03/30 06:36:24;;;;;;;3.72;2.03;;;12.60;94.40;;;;;;5045825;28;20060;-59
2021/03/30 06:39:07;;;;;;;3.03;2.08;;;12.80;94.10;;;;;;5055987;28;20048;-59
2021/03/30 06:46:57;;;;;;;2.80;1.98;;;12.90;94.20;;;;;;5048532;28;20064;-60
2021/03/30 06:49:24;;;;;;;3.30;1.73;;;13.00;93.90;;;;;;5044493;28;20028;-60
2021/03/30 06:51:50;;;;;;;4.65;3.17;;;13.20;93.50;;;;;;5053089;28;20012;-59
2021/03/30 06:54:16;;;;;;;7.40;2.90;;;13.10;93.40;;;;;;5047308;28;20479;-60
2021/03/30 06:56:52;;;;;;;5.75;3.03;;;12.90;93.70;;;;;;5045207;28;20036;-60
2021/03/30 06:59:18;;;;;;;3.30;2.13;;;13.10;94.50;;;;;;5053119;28;20090;-60
2021/03/30 07:01:46;;;;;;;4.55;2.72;;;13.40;94.10;;;;;;5068306;28;20036;-60
2021/03/30 07:04:13;;;;;;;4.63;2.13;;;13.50;93.90;;;;;;5065623;28;20036;-59
2021/03/30 07:06:40;;;;;;;2.22;1.95;;;13.70;93.80;;;;;;5068418;28;20052;-60
2021/03/30 07:09:09;;;;;;;3.15;1.70;;;13.80;93.70;;;;;;5068669;28;20535;-60
2021/03/30 07:11:37;;;;;;;4.43;2.22;;;13.90;93.70;;;;;;5067790;28;20830;-60
2021/03/30 07:14:03;;;;;;;3.10;1.95;;;14.00;93.30;;;;;;5066282;28;20092;-59
2021/03/30 07:16:38;;;;;;;2.20;1.60;;;14.00;93.80;;;;;;5056672;28;20021;-60
2021/03/30 07:19:05;;;;;;;2.25;1.70;;;14.10;93.50;;;;;;5066123;28;20104;-60
2021/03/30 07:21:44;;;;;;;3.40;1.50;;;14.20;94.10;;;;;;5049142;28;20037;-60
2021/03/30 07:24:12;;;;;;;2.83;1.75;;;14.20;93.00;;;;;;5048532;28;20542;-59
2021/03/30 07:26:49;;;;;;;1.70;1.40;;;14.10;93.50;;;;;;5046779;28;20499;-59
2021/03/30 07:29:17;;;;;;;2.83;1.67;;;14.20;92.90;;;;;;5046533;28;20132;-59
2021/03/30 07:31:57;;;;;;;1.58;1.45;;;14.10;93.30;;;;;;5046546;28;20107;-60
2021/03/30 07:34:57;;;;;;;1.85;1.55;;;14.30;93.00;;;;;;5046709;28;20090;-60
2021/03/30 07:37:42;;;;;;;2.55;1.58;;;14.40;93.80;;;;;;5046488;28;20029;-60
2021/03/30 07:40:10;;;;;;;2.10;1.58;;;14.40;93.40;;;;;;5046605;28;20029;-59
2021/03/30 07:42:40;;;;;;;2.20;1.38;;;14.10;93.30;;;;;;5046319;28;20040;-59
2021/03/30 07:45:09;;;;;;;2.60;2.00;;;14.20;93.10;;;;;;5046164;28;20036;-60
2021/03/30 07:47:36;;;;;;;2.38;1.60;;;14.10;93.20;;;;;;5046073;28;20025;-60
2021/03/30 07:50:04;;;;;;;2.80;1.40;;;14.30;93.70;;;;;;5046436;28;20294;-60
2021/03/30 07:52:47;;;;;;;1.88;1.27;;;14.60;93.40;;;;;;5046329;28;20537;-60
2021/03/30 07:55:21;;;;;;;1.65;1.30;;;14.80;94.00;;;;;;5046586;28;20478;-60
2021/03/30 07:57:59;;;;;;;2.97;1.20;;;15.10;94.00;;;;;;5046365;28;20060;-60
2021/03/30 08:00:31;;;;;;;1.52;1.38;;;15.20;93.00;;;;;;5046666;28;20029;-60
2021/03/30 08:03:04;;;;;;;5.82;1.25;;;15.40;92.60;;;;;;5046711;28;20060;-60
2021/03/30 08:05:33;;;;;;;1.50;1.10;;;15.30;92.70;;;;;;5045815;28;20041;-60
2021/03/30 08:07:59;;;;;;;1.25;1.05;;;15.40;92.20;;;;;;5051272;28;20056;-60
2021/03/30 08:10:34;;;;;;;1.10;1.00;;;15.60;92.70;;;;;;5065665;28;20111;-60
2021/03/30 08:13:26;;;;;;;1.42;0.80;;;15.60;93.10;;;;;;5065899;28;20033;-60
2021/03/30 08:16:00;;;;;;;1.13;1.02;;;15.60;92.30;;;;;;5065762;28;20028;-60
2021/03/30 08:18:29;;;;;;;1.52;1.25;;;15.70;92.30;;;;;;5065703;28;20624;-60
2021/03/30 08:20:55;;;;;;;1.48;1.08;;;15.70;91.50;;;;;;5064721;28;20029;-60
2021/03/30 08:23:22;;;;;;;1.20;1.10;;;15.80;93.00;;;;;;5064891;28;20403;-60
2021/03/30 08:25:52;;;;;;;0.88;0.85;;;15.80;92.10;;;;;;5065606;28;20405;-60
2021/03/30 08:28:46;;;;;;;1.85;1.00;;;16.00;93.20;;;;;;5065893;28;20296;-60
2021/03/30 08:31:12;;;;;;;1.08;0.98;;;15.90;93.10;;;;;;5065674;28;20103;-60
2021/03/30 08:33:40;;;;;;;1.20;0.93;;;16.00;93.40;;;;;;5066255;28;20851;-60
2021/03/30 08:36:44;;;;;;;0.82;0.70;;;16.00;92.90;;;;;;5066361;28;20508;-60
2021/03/30 08:39:32;;;;;;;1.77;1.10;;;16.20;93.60;;;;;;5065746;28;20072;-60
2021/03/30 08:41:57;;;;;;;0.88;0.80;;;16.40;94.20;;;;;;5065603;28;20180;-60
2021/03/30 08:44:32;;;;;;;1.02;0.80;;;16.30;92.60;;;;;;5063980;28;20036;-60
2021/03/30 08:47:00;;;;;;;1.10;0.95;;;16.40;92.80;;;;;;5065323;28;20040;-60
2021/03/30 08:49:35;;;;;;;1.52;0.90;;;16.40;92.30;;;;;;5064752;28;20056;-60
2021/03/30 08:52:05;;;;;;;0.90;0.80;;;16.60;93.10;;;;;;5065490;28;20033;-60
2021/03/30 08:54:35;;;;;;;1.30;0.80;;;16.60;93.10;;;;;;5065020;28;20044;-60
2021/03/30 08:57:08;;;;;;;0.68;0.68;;;16.70;93.10;;;;;;5065150;28;20032;-59
2021/03/30 08:59:35;;;;;;;0.60;0.60;;;16.90;94.00;;;;;;5064845;28;20457;-60
2021/03/30 09:02:11;;;;;;;0.95;0.70;;;16.90;93.70;;;;;;5065226;28;20040;-60
2021/03/30 09:04:40;;;;;;;0.70;0.55;;;16.90;92.60;;;;;;5065436;28;20032;-60
2021/03/30 09:07:07;;;;;;;1.15;0.60;;;16.90;92.70;;;;;;5065323;28;20097;-60
2021/03/30 09:09:37;;;;;;;0.70;0.70;;;17.00;93.20;;;;;;5064687;28;20056;-60
2021/03/30 09:12:16;;;;;;;0.60;0.60;;;17.00;92.30;;;;;;5064955;28;20025;-60
2021/03/30 09:15:03;;;;;;;0.70;0.70;;;16.80;93.80;;;;;;5064742;28;20016;-61
2021/03/30 09:17:30;;;;;;;1.67;0.60;;;17.00;92.60;;;;;;5064661;28;20112;-60
2021/03/30 09:19:59;;;;;;;0.98;0.65;;;17.30;93.60;;;;;;5064773;28;20043;-60
2021/03/30 09:27:40;;;;;;;1.30;0.75;;;17.50;93.10;;;;;;5064876;28;20028;-60
2021/03/30 09:30:17;;;;;;;1.70;0.82;;;17.80;93.40;;;;;;5065372;28;20029;-60
2021/03/30 09:32:44;;;;;;;1.45;0.80;;;17.60;90.70;;;;;;5064267;28;20025;-60
2021/03/30 09:35:13;;;;;;;1.02;0.63;;;17.50;92.30;;;;;;5065653;28;20422;-60
2021/03/30 09:37:40;;;;;;;0.73;0.60;;;17.80;91.40;;;;;;5064989;28;20040;-60
2021/03/30 09:40:08;;;;;;;1.25;0.80;;;18.10;91.10;;;;;;5064037;28;20020;-60
2021/03/30 09:42:34;;;;;;;0.90;0.70;;;18.20;88.10;;;;;;5063837;28;20384;-60
2021/03/30 09:45:02;;;;;;;0.50;0.50;;;18.10;90.00;;;;;;5064758;28;20620;-60
2021/03/30 09:47:30;;;;;;;0.85;0.70;;;18.50;90.30;;;;;;5064142;28;20074;-60
2021/03/30 09:49:59;;;;;;;1.25;0.73;;;18.70;90.10;;;;;;5064728;28;20039;-60
2021/03/30 09:52:25;;;;;;;1.13;0.80;;;18.80;89.80;;;;;;5064218;28;20501;-60
2021/03/30 09:54:51;;;;;;;0.70;0.70;;;18.80;88.30;;;;;;5064302;28;20107;-60
2021/03/30 09:57:23;;;;;;;0.80;0.70;;;18.70;88.40;;;;;;5064819;28;20104;-60
2021/03/30 09:59:51;;;;;;;0.80;0.80;;;18.80;89.10;;;;;;5064487;28;20039;-60
2021/03/30 10:02:19;;;;;;;0.98;0.70;;;19.20;88.80;;;;;;5064560;28;20021;-60
2021/03/30 10:04:44;;;;;;;0.68;0.68;;;19.10;84.80;;;;;;5063585;28;20082;-60
2021/03/30 10:07:16;;;;;;;1.20;0.85;;;19.00;83.80;;;;;;5061884;28;20064;-60
2021/03/30 10:10:00;;;;;;;1.02;0.93;;;18.80;83.40;;;;;;5064133;28;20032;-60
2021/03/30 10:12:29;;;;;;;;;;;18.80;83.80;;;;;;5063568;28;20029;-60
2021/03/30 10:14:57;;;;;;;2.60;0.80;;;18.90;82.30;;;;;;5063946;28;20093;-60
2021/03/30 10:17:26;;;;;;;4.03;1.60;;;18.90;84.30;;;;;;5064835;28;20398;-59
2021/03/30 10:19:53;;;;;;;2.58;1.02;;;19.10;87.00;;;;;;5064661;28;20021;-60
2021/03/30 10:22:27;;;;;;;2.35;1.10;;;19.50;86.30;;;;;;5061216;28;20463;-60
2021/03/30 10:25:14;;;;;;;1.17;0.80;;;19.70;85.30;;;;;;5064569;28;20025;-61
2021/03/30 10:27:58;;;;;;;1.85;0.88;;;19.70;86.50;;;;;;5063631;28;20506;-61
2021/03/30 10:30:35;;;;;;;0.90;0.85;;;19.80;83.00;;;;;;5064252;28;20028;-60
2021/03/30 10:33:05;;;;;;;1.30;0.90;;;19.60;83.40;;;;;;5065339;28;20020;-61
2021/03/30 10:35:33;;;;;;;1.25;0.80;;;19.60;82.50;;;;;;5067968;28;20530;-61
2021/03/30 10:38:00;;;;;;;1.23;0.80;;;19.90;81.90;;;;;;5068203;28;20096;-60
2021/03/30 10:40:34;;;;;;;0.80;0.80;;;19.90;85.20;;;;;;5067442;28;20495;-61
2021/03/30 10:43:22;;;;;;;0.90;0.70;;;20.10;81.00;;;;;;5066219;28;20055;-61
2021/03/30 10:45:50;;;;;;;0.60;0.60;;;19.80;81.10;;;;;;5067833;28;20028;-61
2021/03/30 10:48:15;;;;;;;0.90;0.90;;;20.30;83.10;;;;;;5066428;28;20539;-60
2021/03/30 10:50:43;;;;;;;1.15;0.90;;;20.70;83.40;;;;;;5067340;28;20040;-61
2021/03/30 10:53:10;;;;;;;1.60;1.02;;;20.70;83.50;;;;;;5067691;28;20125;-61
2021/03/30 10:55:38;;;;;;;0.68;0.68;;;20.70;82.60;;;;;;5067239;28;20056;-61
2021/03/30 10:58:07;;;;;;;1.50;0.90;;;20.50;81.50;;;;;;5067628;28;20548;-61
2021/03/30 11:00:36;;;;;;;1.35;1.00;;;20.60;80.60;;;;;;5067115;28;20579;-61
2021/03/30 11:03:03;;;;;;;5.20;2.10;;;20.60;81.90;;;;;;5067267;28;20469;-61
2021/03/30 11:05:29;;;;;;;3.28;1.67;;;20.30;82.60;;;;;;5066813;28;20119;-61
2021/03/30 11:07:54;;;;;;;2.50;1.45;;;20.30;81.00;;;;;;5067549;28;20562;-61
2021/03/30 11:10:22;;;;;;;3.00;1.50;;;20.30;81.70;;;;;;5068019;28;20028;-62
2021/03/30 11:12:49;;;;;;;3.58;2.17;;;20.40;80.10;;;;;;5067026;28;20031;-61
2021/03/30 11:15:15;;;;;;;2.97;1.60;;;20.30;81.00;;;;;;5067204;28;20473;-61
2021/03/30 11:17:41;;;;;;;3.13;1.63;;;20.30;80.20;;;;;;5067068;28;20028;-61
2021/03/30 11:20:15;;;;;;;1.58;1.23;;;20.40;80.00;;;;;;5057248;28;20162;-61
2021/03/30 11:22:42;;;;;;;1.90;1.27;;;20.40;80.10;;;;;;5058386;28;20113;-61
2021/03/30 11:25:10;;;;;;;1.48;0.95;;;20.60;78.50;;;;;;5056195;28;20068;-61
2021/03/30 11:27:37;;;;;;;2.63;0.98;;;21.30;79.10;;;;;;5062403;28;20492;-61
2021/03/30 11:30:12;;;;;;;1.42;1.02;;;21.40;75.70;;;;;;5052630;28;20063;-62
2021/03/30 11:32:43;;;;;;;1.17;0.90;;;21.40;78.20;;;;;;5050409;28;20025;-61
2021/03/30 11:35:15;;;;;;;2.13;1.13;;;21.50;77.20;;;;;;5050726;28;20492;-62
2021/03/30 11:40:11;;;;;;;1.35;1.00;;;21.50;75.50;;;;;;5059139;28;20705;-62
2021/03/30 11:42:37;;;;;;;1.35;0.90;;;21.50;76.20;;;;;;5047846;28;20139;-63
2021/03/30 11:45:03;;;;;;;0.88;0.70;;;21.90;77.80;;;;;;5046324;28;20047;-62
2021/03/30 11:47:29;;;;;;;0.95;0.70;;;22.20;77.90;;;;;;5063574;28;20094;-62
2021/03/30 11:49:55;;;;;;;0.82;0.82;;;22.60;78.80;;;;;;5053330;28;20525;-62
2021/03/30 11:52:21;;;;;;;1.83;1.02;;;22.60;76.60;;;;;;5048160;28;20037;-62
2021/03/30 11:54:46;;;;;;;0.82;0.82;;;22.40;76.10;;;;;;5050849;28;20025;-62
2021/03/30 11:57:12;;;;;;;2.10;0.95;;;22.60;75.00;;;;;;5048385;28;20025;-62
2021/03/30 11:59:38;;;;;;;1.40;1.10;;;22.60;72.60;;;;;;5049275;28;20033;-62
2021/03/30 12:02:04;;;;;;;1.25;1.15;;;22.80;73.30;;;;;;5047361;28;20060;-63
2021/03/30 12:04:31;;;;;;;1.30;1.20;;;22.80;71.80;;;;;;5045010;28;20459;-61
2021/03/30 12:06:57;;;;;;;1.95;1.30;;;23.00;71.10;;;;;;5062488;28;20468;-63
2021/03/30 12:09:23;;;;;;;2.75;1.60;;;23.00;70.10;;;;;;5046057;28;20146;-63
2021/03/30 12:11:49;;;;;;;2.65;1.75;;;23.10;70.50;;;;;;5045519;28;20056;-63
2021/03/30 12:14:16;;;;;;;2.28;1.63;;;23.00;70.40;;;;;;5045683;28;20025;-63
2021/03/30 12:16:46;;;;;;;3.42;1.40;;;23.00;69.50;;;;;;5045081;28;20024;-63
2021/03/30 12:19:14;;;;;;;2.35;1.40;;;23.00;69.30;;;;;;5045213;28;20440;-63
2021/03/30 12:21:39;;;;;;;2.10;1.30;;;23.40;71.40;;;;;;5045037;28;20112;-63
2021/03/30 12:24:06;;;;;;;1.65;1.40;;;23.70;69.70;;;;;;5045378;28;20131;-62
2021/03/30 12:26:31;;;;;;;1.95;1.27;;;23.80;69.60;;;;;;5045357;28;20041;-63
2021/03/30 12:29:00;;;;;;;1.30;1.20;;;24.00;68.50;;;;;;5045392;28;20028;-63
2021/03/30 12:31:26;;;;;;;1.52;1.20;;;24.20;69.40;;;;;;5044909;28;20114;-63
2021/03/30 12:33:53;;;;;;;1.70;1.20;;;24.30;68.40;;;;;;5045683;28;20021;-62
2021/03/30 12:36:19;;;;;;;2.97;1.15;;;24.20;68.70;;;;;;5048774;28;20094;-63
2021/03/30 12:38:46;;;;;;;2.42;1.30;;;24.10;67.40;;;;;;5065120;28;20033;-62
2021/03/30 12:41:11;;;;;;;2.70;1.25;;;24.40;67.00;;;;;;5055541;28;20043;-62
2021/03/30 12:43:38;;;;;;;2.60;1.50;;;24.40;65.60;;;;;;5044480;28;20033;-63
2021/03/30 12:46:05;;;;;;;2.53;1.77;;;24.60;66.20;;;;;;5045171;28;20053;-63
2021/03/30 12:48:30;;;;;;;2.42;1.65;;;24.70;64.70;;;;;;5044210;28;20450;-63
2021/03/30 12:50:57;;;;;;;2.45;1.40;;;25.00;64.70;;;;;;5045253;28;20104;-63
2021/03/30 12:53:23;;;;;;;1.73;1.50;;;25.10;63.50;;;;;;5045319;28;20469;-63
2021/03/30 12:55:49;;;;;;;2.38;1.40;;;25.10;63.90;;;;;;5044167;28;20064;-63
2021/03/30 12:58:15;;;;;;;9.75;2.10;;;25.30;66.40;;;;;;5044914;28;20064;-63
2021/03/30 13:00:41;;;;;;;5.85;2.28;;;25.10;62.90;;;;;;5044381;28;20503;-63
2021/03/30 13:03:07;;;;;;;2.97;1.70;;;25.00;63.50;;;;;;5045296;28;20474;-63
2021/03/30 13:05:33;;;;;;;2.92;1.50;;;25.20;63.90;;;;;;5053120;28;20103;-63
2021/03/30 13:07:59;;;;;;;5.50;1.95;;;25.40;63.00;;;;;;5047304;28;20115;-64
2021/03/30 13:10:24;;;;;;;4.35;1.85;;;25.60;63.50;;;;;;5044483;28;20025;-64
2021/03/30 13:12:51;;;;;;;2.50;1.80;;;25.60;62.10;;;;;;5045188;28;20457;-64
2021/03/30 13:15:18;;;;;;;3.53;2.10;;;25.70;62.30;;;;;;5044516;28;20387;-66